Blackstone, MA (01504)

10:09 PM EDT on September 26, 2016 (GMT -0400)
The North End | | Change Station

Elev 242 ft 42.01 °N, 71.52 °W | Updated 4 seconds ago

Partly Cloudy
Partly Cloudy
53.3 °F
Feels Like 53.3 °F
N
0.0
Wind Variable Wind from WSW
Gusts 1.0 mph

Today
High -- | Low -- °F
--% Chance of Precip.
Yesterday
High -- | Low -- °F
Precip. -- in
Pressure 30.07 in
Visibility 10.0 miles
Clouds Few 8000 ft
Dew Point 49 °F
Humidity 84%
Rainfall 0.00 in
Snow Depth Not available.
6:38 AM 6:35 PM
Waning Crescent, 15% visible
METAR KSFZ 270156Z AUTO VRB03KT 10SM FEW080 12/09 A3007 RMK AO2 SLPNO T01170089
Pressure 30.07 in
Visibility 10.0 miles
Clouds Few 8000 ft
Dew Point 49 °F
Humidity 84%
Rainfall 0.00 in
Snow Depth Not available.
6:38 AM 6:35 PM
Waning Crescent, 15% visible
METAR KSFZ 270156Z AUTO VRB03KT 10SM FEW080 12/09 A3007 RMK AO2 SLPNO T01170089

10-Day Weather Forecast

Almanac

Astronomy

Sep. 26, 2016 Rise Set
Actual Time
Civil Twilight
Nautical Twilight
Astronomical Twilight
Moon
Length of Visible Light
Length of Day
Tomorrow will be .
, % of the Moon is Illuminated

Today's Extremes

State Highs State Lows

Community

WunderPhotos

Upload Photos

1,942,013 photos uploaded!

WunderBlog® & News

Nearby

Air Quality

  Air Quality AQ Index Pollutant
Not available.

Snow Depth

Station Depth Elevation

Earthquake Activity

City Distance Mag. Time & Date
Minimum magnitude displayed is 2.5.

Coastal Water Temperatures

Place Temperature

Stations

Nearby Weather Stations

Station Location Temp. Windchill Dew Point Humidity Wind Precip. Elev Updated Type
                   

Watches & Warnings

There are currently no watches in effect.